Time;durP1;ratioP1;P1;durP2;ratioP2;P2;SDS_P1;SDS_P2;PMS_P1;PMS_P2;Temp;Humidity;BMP_temperature;BMP_pressure;BME280_temperature;BME280_humidity;BME280_pressure;Samples;Min_cycle;Max_cycle;Signal;HPM_P1;HPM_P2
2022/06/17 00:00:44;;;;;;;;;9.00;9.00;;;;;26.10;33.04;101660.69;5077755;27;45729;-69
2022/06/17 00:03:09;;;;;;;;;9.00;9.00;;;;;26.08;33.47;101658.91;5078028;27;45406;-70
2022/06/17 00:05:35;;;;;;;;;10.33;10.33;;;;;26.03;33.24;101656.28;5078032;27;45306;-69
2022/06/17 00:08:00;;;;;;;;;14.00;11.00;;;;;25.99;33.21;101645.47;5078542;27;46055;-69
2022/06/17 00:10:27;;;;;;;;;10.33;10.33;;;;;25.97;33.40;101640.03;5084621;27;45480;-69
2022/06/17 00:12:52;;;;;;;;;13.00;10.67;;;;;25.80;33.42;101615.72;5081790;27;45639;-68
2022/06/17 00:15:19;;;;;;;;;8.33;8.33;;;;;25.97;33.74;101642.75;5084527;27;45475;-69
2022/06/17 00:17:58;;;;;;;;;11.67;11.67;;;;;25.92;33.42;101648.31;5089593;27;46557;-68
2022/06/17 00:20:24;;;;;;;;;13.33;10.00;;;;;25.88;33.71;101642.94;5087398;27;45414;-69
2022/06/17 00:22:50;;;;;;;;;15.33;10.33;;;;;25.87;33.92;101644.78;5081915;27;45301;-68
2022/06/17 00:25:24;;;;;;;;;10.67;8.67;;;;;25.87;34.16;101635.63;5084845;27;45645;-69
2022/06/17 00:27:49;;;;;;;;;7.67;7.67;;;;;25.85;33.74;101638.41;5084619;27;45714;-67
2022/06/17 00:30:23;;;;;;;;;16.00;11.00;;;;;25.82;34.06;101637.59;5085853;27;45254;-69
2022/06/17 00:32:52;;;;;;;;;13.33;10.33;;;;;25.81;33.84;101635.81;5088611;27;45476;-67
2022/06/17 00:35:18;;;;;;;;;14.33;11.33;;;;;25.81;33.89;101642.16;5087855;27;45531;-67
2022/06/17 00:37:44;;;;;;;;;9.67;9.67;;;;;25.83;34.10;101643.03;5078120;27;48484;-68
2022/06/17 00:40:14;;;;;;;;;11.67;9.33;;;;;25.74;34.08;101635.94;5077442;27;45359;-68
2022/06/17 00:42:41;;;;;;;;;11.00;9.67;;;;;25.69;34.27;101632.41;5077016;27;45554;-67
2022/06/17 00:45:16;;;;;;;;;11.00;11.00;;;;;25.58;34.50;101614.44;5077567;27;45313;-68
2022/06/17 00:48:06;;;;;;;;;12.33;10.00;;;;;25.65;34.23;101622.44;5092986;27;46327;-68
2022/06/17 00:50:37;;;;;;;;;19.50;18.00;;;;;25.75;34.51;101637.75;5082685;27;45332;-68
2022/06/17 00:53:19;;;;;;;;;11.00;11.00;;;;;25.68;34.24;101629.69;5076059;27;45452;-68
2022/06/17 00:55:54;;;;;;;;;12.25;11.75;;;;;25.73;34.48;101642.34;5077297;27;45439;-69
2022/06/17 00:58:25;;;;;;;;;12.00;11.00;;;;;25.70;34.39;101644.25;5076887;27;46359;-68
2022/06/17 01:00:57;;;;;;;;;9.33;9.00;;;;;25.67;34.13;101638.84;5080131;27;45510;-68
2022/06/17 01:03:30;;;;;;;;;12.00;12.00;;;;;25.65;34.71;101640.72;5080694;27;45518;-68
2022/06/17 01:06:08;;;;;;;;;10.67;10.67;;;;;25.66;34.78;101646.16;5080673;27;45393;-68
2022/06/17 01:11:25;;;;;;;;;10.33;9.00;;;;;25.61;34.12;101647.22;5080200;27;45439;-68
2022/06/17 01:13:51;;;;;;;;;9.33;9.33;;;;;25.54;34.50;101630.00;5080487;27;45484;-69
2022/06/17 01:16:22;;;;;;;;;14.00;10.33;;;;;25.63;34.18;101657.16;5082748;27;45322;-68
2022/06/17 01:18:50;;;;;;;;;7.67;7.67;;;;;25.62;34.77;101655.34;5090758;27;45486;-68
2022/06/17 01:21:27;;;;;;;;;10.00;10.00;;;;;25.61;34.77;101652.69;5080142;27;45377;-68
2022/06/17 01:23:53;;;;;;;;;10.33;10.33;;;;;25.61;34.75;101653.56;5096837;27;45479;-68
2022/06/17 01:26:18;;;;;;;;;9.67;8.00;;;;;25.61;34.29;101648.09;5089306;27;45507;-68
2022/06/17 01:28:44;;;;;;;;;13.00;11.33;;;;;25.59;34.33;101654.53;5093315;27;46674;-68
2022/06/17 01:31:10;;;;;;;;;11.33;9.00;;;;;25.56;35.01;101648.19;5080084;27;45432;-68
2022/06/17 01:33:39;;;;;;;;;8.00;8.00;;;;;25.57;34.82;101651.81;5080274;27;45423;-69
2022/06/17 01:36:07;;;;;;;;;11.67;9.67;;;;;25.52;34.66;101645.56;5080444;27;45562;-67
2022/06/17 01:38:35;;;;;;;;;9.67;9.00;;;;;25.55;34.67;101659.16;5079847;27;46184;-68
2022/06/17 01:41:02;;;;;;;;;11.67;11.67;;;;;25.53;34.68;101667.41;5090502;27;45265;-67
2022/06/17 01:43:51;;;;;;;;;9.67;7.67;;;;;25.52;35.23;101654.69;5080161;27;45467;-69
2022/06/17 01:46:22;;;;;;;;;8.33;8.33;;;;;25.54;35.07;101657.34;5080490;27;45404;-67
2022/06/17 01:49:10;;;;;;;;;8.33;6.67;;;;;25.51;35.03;101655.59;5079569;27;45393;-69
2022/06/17 01:51:41;;;;;;;;;7.67;7.67;;;;;25.42;34.98;101644.84;5079538;27;45687;-68
2022/06/17 01:54:12;;;;;;;;;7.00;7.00;;;;;25.48;35.20;101663.88;5092550;27;45479;-67
2022/06/17 01:56:41;;;;;;;;;7.67;7.67;;;;;25.47;35.44;101678.47;5080040;27;45526;-68
2022/06/17 01:59:12;;;;;;;;;8.67;7.67;;;;;25.44;35.08;101685.84;5079355;27;45469;-67
2022/06/17 02:01:43;;;;;;;;;12.33;11.00;;;;;25.42;35.11;101685.00;5079777;27;45330;-66
2022/06/17 02:04:13;;;;;;;;;10.00;9.00;;;;;25.31;35.10;101672.44;5079466;27;45494;-68
2022/06/17 02:06:55;;;;;;;;;11.67;9.33;;;;;25.37;35.67;101685.97;5079910;27;45389;-67
2022/06/17 02:09:21;;;;;;;;;11.33;9.00;;;;;25.35;35.21;101681.47;5079407;27;46214;-70
2022/06/17 02:11:47;;;;;;;;;7.67;7.67;;;;;25.27;35.51;101675.25;5078884;27;45393;-69
2022/06/17 02:14:14;;;;;;;;;7.00;7.00;;;;;25.29;35.52;101701.66;5079532;27;45602;-68
2022/06/17 02:16:50;;;;;;;;;9.33;8.00;;;;;25.26;36.08;101704.41;5079709;27;45450;-69
2022/06/17 02:19:16;;;;;;;;;7.00;7.00;;;;;25.26;35.99;101698.03;5079274;27;46298;-67
2022/06/17 02:21:46;;;;;;;;;7.33;7.33;;;;;25.26;35.74;101700.75;5080251;27;45420;-68
2022/06/17 02:24:12;;;;;;;;;7.33;6.33;;;;;25.14;35.58;101686.38;5091990;27;45445;-69
2022/06/17 02:26:41;;;;;;;;;8.00;6.33;;;;;25.19;36.22;101708.19;5079604;27;45453;-68
2022/06/17 02:29:10;;;;;;;;;8.67;8.00;;;;;25.20;36.14;101716.38;5092755;27;45556;-69
2022/06/17 02:31:38;;;;;;;;;8.00;8.00;;;;;25.15;36.24;101707.34;5079235;27;45349;-67
2022/06/17 02:34:06;;;;;;;;;7.33;7.33;;;;;25.19;36.20;101714.59;5079228;27;45505;-69
2022/06/17 02:36:37;;;;;;;;;7.33;7.00;;;;;25.19;35.99;101716.41;5079433;27;45262;-69
2022/06/17 02:39:04;;;;;;;;;8.67;7.67;;;;;25.13;36.40;101706.50;5078961;27;45345;-67
2022/06/17 02:41:30;;;;;;;;;8.33;8.33;;;;;24.75;36.63;101650.69;5078992;27;45433;-69
2022/06/17 02:44:05;;;;;;;;;8.33;7.00;;;;;25.09;36.03;101712.03;5079280;27;45443;-68
2022/06/17 02:46:35;;;;;;;;;8.00;8.00;;;;;25.09;36.48;101712.03;5079663;27;45593;-67
2022/06/17 02:49:04;;;;;;;;;6.00;6.00;;;;;25.09;36.50;101710.19;5078649;27;46122;-68
2022/06/17 02:51:35;;;;;;;;;9.67;7.00;;;;;25.07;36.02;101711.16;5078961;27;45455;-68
2022/06/17 02:54:03;;;;;;;;;5.00;5.00;;;;;25.07;36.62;101713.91;5079088;27;45234;-69
2022/06/17 02:56:31;;;;;;;;;8.33;8.33;;;;;25.09;36.25;101726.59;5078952;27;45547;-68
2022/06/17 02:59:22;;;;;;;;;9.00;8.00;;;;;25.06;36.45;101714.81;5078857;27;45442;-69
2022/06/17 03:01:51;;;;;;;;;8.67;8.67;;;;;24.94;36.61;101710.50;5087567;27;45385;-68
2022/06/17 03:04:23;;;;;;;;;7.33;7.33;;;;;24.92;36.38;101717.81;5085256;27;45523;-69
2022/06/17 03:06:52;;;;;;;;;7.67;7.00;;;;;24.82;36.61;101712.50;5085680;27;45487;-69
2022/06/17 03:09:26;;;;;;;;;15.33;13.00;;;;;24.79;36.45;101720.75;5076209;27;48157;-67
2022/06/17 03:11:56;;;;;;;;;10.00;9.00;;;;;24.74;36.10;101709.00;5077099;27;45409;-66
2022/06/17 03:14:25;;;;;;;;;9.67;9.33;;;;;24.71;36.24;101703.59;5078411;27;45348;-69
2022/06/17 03:16:53;;;;;;;;;8.33;7.33;;;;;24.58;36.51;101678.31;5079030;27;45189;-67
2022/06/17 03:19:21;;;;;;;;;14.00;10.33;;;;;24.58;36.14;101681.06;5078503;27;45389;-67
2022/06/17 03:21:46;;;;;;;;;7.33;7.33;;;;;24.71;36.24;101691.75;5079429;27;45590;-66
2022/06/17 03:24:27;;;;;;;;;8.00;6.33;;;;;24.72;36.85;101693.56;5083041;27;45945;-67
2022/06/17 03:27:05;;;;;;;;;8.67;8.67;;;;;24.61;36.35;101689.19;5078530;27;45353;-68
2022/06/17 03:29:33;;;;;;;;;11.67;7.33;;;;;24.68;36.50;101697.28;5078265;27;45734;-68
2022/06/17 03:32:36;;;;;;;;;7.00;6.00;;;;;24.58;36.53;101675.59;5078071;27;45522;-68
2022/06/17 03:35:02;;;;;;;;;8.67;8.00;;;;;24.58;36.58;101675.59;5076917;27;45499;-68
2022/06/17 03:37:49;;;;;;;;;9.00;8.00;;;;;24.43;36.70;101673.97;5078070;27;45468;-68
2022/06/17 03:40:22;;;;;;;;;7.00;7.00;;;;;24.40;36.53;101664.91;5078206;27;45537;-68
2022/06/17 03:43:11;;;;;;;;;7.33;6.33;;;;;24.56;36.57;101668.34;5075103;27;45495;-69
2022/06/17 03:45:48;;;;;;;;;7.33;7.33;;;;;24.58;36.17;101653.75;5076571;27;45544;-69
2022/06/17 03:48:34;;;;;;;;;11.00;8.00;;;;;24.50;36.38;101642.00;5089019;27;45616;-67
2022/06/17 03:50:59;;;;;;;;;7.67;6.33;;;;;24.37;36.20;101643.13;5077349;27;45466;-68
2022/06/17 03:53:36;;;;;;;;;9.67;9.33;;;;;24.43;36.70;101682.16;5087705;27;45411;-66
2022/06/17 03:56:13;;;;;;;;;7.67;6.00;;;;;24.48;36.77;101709.41;5079490;27;45486;-67
2022/06/17 03:58:40;;;;;;;;;9.00;7.00;;;;;24.47;36.68;101710.34;5077944;27;45489;-68
2022/06/17 04:01:32;;;;;;;;;9.00;8.33;;;;;24.39;36.75;101707.72;5077427;27;46324;-68
2022/06/17 04:04:01;;;;;;;;;6.00;6.00;;;;;24.36;36.90;101696.84;5077006;27;45491;-67
2022/06/17 04:06:36;;;;;;;;;8.67;8.00;;;;;24.48;36.39;101723.06;5077659;27;45527;-68
2022/06/17 04:09:16;;;;;;;;;6.00;6.00;;;;;24.47;36.65;101722.16;5077941;27;45513;-68
2022/06/17 04:11:46;;;;;;;;;6.33;6.00;;;;;24.45;36.72;101706.72;5089277;27;45987;-67
2022/06/17 04:14:23;;;;;;;;;8.00;8.00;;;;;24.49;36.28;101707.59;5077539;27;45475;-67
2022/06/17 04:17:05;;;;;;;;;8.33;7.67;;;;;24.50;36.50;101713.03;5077759;27;45394;-68
2022/06/17 04:19:31;;;;;;;;;7.00;7.00;;;;;24.48;36.37;101701.22;5077684;27;45467;-69
2022/06/17 04:22:19;;;;;;;;;8.00;8.00;;;;;24.51;36.68;101708.47;5080245;27;46209;-67
2022/06/17 04:24:48;;;;;;;;;7.00;7.00;;;;;24.53;36.67;101704.75;5085414;27;45345;-67
2022/06/17 04:27:14;;;;;;;;;9.00;7.67;;;;;24.54;36.37;101706.56;5077550;27;45449;-69
2022/06/17 04:29:44;;;;;;;;;7.67;7.33;;;;;24.51;36.68;101713.94;5088535;27;45348;-68
2022/06/17 04:32:32;;;;;;;;;7.00;5.33;;;;;24.49;36.78;101713.94;5079804;27;46094;-69
2022/06/17 04:34:58;;;;;;;;;8.00;8.00;;;;;24.30;37.17;101680.56;5079359;27;45503;-67
2022/06/17 04:37:24;;;;;;;;;12.00;11.00;;;;;24.45;37.22;101704.91;5079463;27;45480;-68
2022/06/17 04:39:58;;;;;;;;;8.67;8.67;;;;;24.44;36.67;101713.13;5081172;27;45430;-69
2022/06/17 04:42:35;;;;;;;;;7.00;7.00;;;;;24.39;37.05;101698.66;5080534;27;46230;-67
2022/06/17 04:45:01;;;;;;;;;8.00;7.33;;;;;24.38;37.03;101708.66;5081108;27;45508;-68
2022/06/17 04:47:27;;;;;;;;;14.67;7.67;;;;;24.38;36.98;101718.69;5080786;27;45416;-68
2022/06/17 04:49:58;;;;;;;;;12.00;11.00;;;;;24.40;36.94;101714.09;5081204;27;45215;-69
2022/06/17 04:52:34;;;;;;;;;7.33;7.33;;;;;24.41;37.01;101726.81;5080894;27;45246;-68
2022/06/17 04:55:03;;;;;;;;;11.00;8.67;;;;;24.40;36.94;101722.28;5080749;27;45475;-67
2022/06/17 04:57:29;;;;;;;;;10.67;10.67;;;;;24.35;37.00;101725.06;5080685;27;45485;-68
2022/06/17 04:59:58;;;;;;;;;11.00;11.00;;;;;24.27;37.44;101713.41;5081083;27;45404;-67
2022/06/17 05:02:30;;;;;;;;;12.33;9.00;;;;;24.31;37.12;101725.19;5080482;27;46241;-69
2022/06/17 05:05:03;;;;;;;;;9.67;8.00;;;;;24.28;37.22;101727.00;5080473;27;45399;-68
2022/06/17 05:07:36;;;;;;;;;8.00;8.00;;;;;24.30;37.31;101724.25;5080735;27;45479;-69
2022/06/17 05:10:08;;;;;;;;;9.00;7.00;;;;;24.39;37.22;101721.38;5081565;27;45398;-68
2022/06/17 05:12:36;;;;;;;;;8.00;7.00;;;;;24.45;37.47;101718.56;5080476;27;46497;-68
2022/06/17 05:15:06;;;;;;;;;7.67;7.33;;;;;24.51;37.05;101724.84;5092747;27;45492;-68
2022/06/17 05:17:32;;;;;;;;;6.67;6.67;;;;;24.54;36.91;101722.97;5079587;27;45282;-66
2022/06/17 05:19:57;;;;;;;;;6.00;6.00;;;;;24.52;37.55;101704.78;5094130;27;45289;-68
2022/06/17 05:22:36;;;;;;;;;8.67;8.67;;;;;24.63;36.86;101719.22;5086354;27;51991;-69
2022/06/17 05:25:06;;;;;;;;;9.67;8.00;;;;;24.67;36.66;101715.50;5085449;27;45482;-70
2022/06/17 05:27:32;;;;;;;;;7.67;7.67;;;;;24.67;36.72;101714.63;5086308;27;45273;-67
2022/06/17 05:29:58;;;;;;;;;9.00;8.00;;;;;24.65;36.73;101700.97;5093467;27;45484;-66
2022/06/17 05:32:23;;;;;;;;;7.00;7.00;;;;;24.61;36.98;101694.63;5080197;27;45557;-67
2022/06/17 05:34:49;;;;;;;;;9.33;9.33;;;;;24.59;36.77;101696.50;5080226;27;45330;-69
2022/06/17 05:37:15;;;;;;;;;9.00;7.33;;;;;24.65;37.21;101692.78;5080165;27;45342;-67
2022/06/17 05:39:41;;;;;;;;;12.33;9.00;;;;;24.62;36.99;101695.56;5080066;27;45625;-67
2022/06/17 05:42:07;;;;;;;;;8.67;8.67;;;;;24.43;37.19;101668.50;5079472;27;45542;-67
2022/06/17 05:44:32;;;;;;;;;8.00;8.00;;;;;24.49;37.18;101686.63;5083161;27;45542;-68
2022/06/17 05:46:58;;;;;;;;;8.00;8.00;;;;;24.32;37.38;101666.88;5089585;27;45445;-69
2022/06/17 05:49:24;;;;;;;;;11.33;10.00;;;;;24.42;37.59;101693.13;5085396;27;45173;-68
2022/06/17 05:51:50;;;;;;;;;10.67;9.33;;;;;24.38;37.22;101689.53;5082377;27;46091;-67
2022/06/17 05:54:15;;;;;;;;;20.50;14.75;;;;;24.41;37.64;101692.22;5084895;27;45168;-69
2022/06/17 05:56:40;;;;;;;;;9.33;9.00;;;;;24.35;37.00;101688.69;5079546;27;45449;-68
2022/06/17 05:59:06;;;;;;;;;17.67;12.00;;;;;24.36;37.22;101685.03;5078319;27;45522;-68
2022/06/17 06:01:32;;;;;;;;;8.00;7.33;;;;;24.38;36.90;101700.44;5077921;27;46558;-67
2022/06/17 06:03:58;;;;;;;;;9.00;8.00;;;;;24.25;37.22;101674.25;5079348;27;45425;-68
2022/06/17 06:06:23;;;;;;;;;12.67;12.67;;;;;24.41;37.02;101710.44;5079186;27;45424;-69
2022/06/17 06:08:48;;;;;;;;;9.00;9.00;;;;;24.41;36.86;101686.75;5079794;27;45693;-67
2022/06/17 06:11:14;;;;;;;;;11.00;7.33;;;;;24.57;36.96;101705.66;5077474;27;50745;-67
2022/06/17 06:13:40;;;;;;;;;7.67;7.67;;;;;24.61;36.91;101712.88;5077948;27;45419;-68
2022/06/17 06:16:05;;;;;;;;;10.67;10.33;;;;;23.97;36.96;101594.63;5078678;27;45554;-69
2022/06/17 06:18:34;;;;;;;;;8.33;8.33;;;;;24.66;37.05;101702.75;5079227;27;45419;-68
2022/06/17 06:21:04;;;;;;;;;12.67;11.00;;;;;24.68;36.86;101689.97;5078487;27;45430;-67
2022/06/17 06:23:29;;;;;;;;;9.67;9.67;;;;;24.76;36.68;101676.19;5091032;27;45389;-65
2022/06/17 06:25:55;;;;;;;;;9.00;9.00;;;;;24.76;36.98;101668.88;5078730;27;45517;-66
2022/06/17 06:28:24;;;;;;;;;11.33;9.33;;;;;24.78;36.74;101650.66;5078873;27;45337;-64
2022/06/17 06:30:52;;;;;;;;;8.67;7.67;;;;;24.98;36.67;101668.50;5078390;27;45665;-66
2022/06/17 06:33:18;;;;;;;;;11.00;10.33;;;;;24.90;36.71;101654.09;5079111;27;45409;-65
2022/06/17 06:35:43;;;;;;;;;13.33;8.33;;;;;25.02;36.65;101654.72;5078342;27;45660;-65
2022/06/17 06:38:08;;;;;;;;;14.00;9.67;;;;;25.13;36.94;101665.47;5078983;27;45582;-65
2022/06/17 06:40:34;;;;;;;;;10.33;8.67;;;;;25.11;36.65;101653.66;5078477;27;46214;-64
2022/06/17 06:43:00;;;;;;;;;8.33;8.33;;;;;25.10;36.83;101653.69;5078459;27;45435;-70
2022/06/17 06:45:34;;;;;;;;;12.33;10.67;;;;;25.09;37.02;101660.97;5082081;27;45473;-68
2022/06/17 06:50:35;;;;;;;;;15.00;11.00;;;;;25.02;36.67;101671.13;6009458;22;46774;-68
2022/06/17 06:53:02;;;;;;;;;10.33;10.33;;;;;24.96;36.88;101664.88;5005695;28;45531;-67
2022/06/17 06:55:28;;;;;;;;;16.00;9.67;;;;;25.04;36.86;101672.94;5009318;28;45794;-67
2022/06/17 06:58:02;;;;;;;;;9.33;8.00;;;;;25.12;36.55;101660.03;5023385;28;45383;-68
2022/06/17 07:00:40;;;;;;;;;10.33;9.00;;;;;25.13;36.52;101638.13;5026938;28;45492;-70
2022/06/17 07:03:06;;;;;;;;;10.33;10.33;;;;;25.22;36.37;101636.13;5020362;28;44956;-68
2022/06/17 07:05:34;;;;;;;;;16.33;13.00;;;;;25.40;36.67;101654.94;5004567;28;46735;-68
2022/06/17 07:07:59;;;;;;;;;8.33;8.33;;;;;25.51;36.13;101674.75;5009973;28;46256;-69
2022/06/17 07:10:28;;;;;;;;;12.00;12.00;;;;;25.60;36.57;101672.75;5006473;28;46347;-66
2022/06/17 07:12:54;;;;;;;;;12.67;12.00;;;;;25.65;36.03;101673.56;5009899;28;45667;-66
2022/06/17 07:15:20;;;;;;;;;10.00;10.00;;;;;25.70;36.00;101679.84;5007428;28;45536;-67
2022/06/17 07:18:06;;;;;;;;;8.33;7.00;;;;;25.82;35.60;101684.13;5011539;28;45259;-67
2022/06/17 07:20:38;;;;;;;;;10.67;10.00;;;;;25.93;35.88;101682.06;5011143;28;45872;-67
2022/06/17 07:23:09;;;;;;;;;10.00;8.67;;;;;26.04;35.35;101684.59;5008498;28;45792;-67
2022/06/17 07:25:35;;;;;;;;;11.00;8.00;;;;;26.03;35.10;101659.03;5017527;28;45212;-67
2022/06/17 07:28:01;;;;;;;;;9.00;9.00;;;;;26.11;34.58;101659.75;5008599;28;45540;-67
2022/06/17 07:30:28;;;;;;;;;20.75;17.25;;;;;26.37;35.04;101671.03;5003860;28;46378;-67
2022/06/17 07:32:54;;;;;;;;;16.33;14.67;;;;;26.41;35.02;101661.78;5002746;28;45429;-68
2022/06/17 07:35:20;;;;;;;;;12.67;12.67;;;;;26.42;34.59;101652.63;5007658;28;46106;-68
2022/06/17 07:40:31;;;;;;;;;14.67;12.33;;;;;26.81;33.56;101678.13;5008357;28;45879;-67
2022/06/17 07:42:58;;;;;;;;;11.33;11.33;;;;;26.95;33.15;101691.47;5006915;28;45666;-66
2022/06/17 07:45:24;;;;;;;;;12.33;11.67;;;;;26.95;32.76;101683.25;5009265;28;45543;-67
2022/06/17 07:47:50;;;;;;;;;10.67;10.33;;;;;27.16;32.67;101700.97;5010309;28;45505;-67
2022/06/17 07:50:22;;;;;;;;;14.50;10.50;;;;;27.32;32.70;101717.94;5008623;28;45946;-68
2022/06/17 07:52:47;;;;;;;;;11.00;11.00;;;;;27.56;32.38;101721.81;5011348;28;45745;-66
2022/06/17 07:55:14;;;;;;;;;10.33;10.33;;;;;27.70;32.20;101715.00;5007781;28;45780;-68
2022/06/17 07:57:39;;;;;;;;;16.67;9.67;;;;;27.79;31.71;101720.22;5010453;28;45672;-67
2022/06/17 08:00:08;;;;;;;;;14.33;11.33;;;;;27.86;31.76;101718.19;5006143;28;45626;-66
2022/06/17 08:02:34;;;;;;;;;15.33;14.00;;;;;27.91;31.55;101729.94;5008594;28;45444;-67
2022/06/17 08:04:59;;;;;;;;;13.33;11.67;;;;;27.93;31.44;101734.47;5008984;28;45517;-66
2022/06/17 08:07:25;;;;;;;;;15.00;15.00;;;;;27.96;31.26;101733.47;5009672;28;45766;-68
2022/06/17 08:09:50;;;;;;;;;12.00;10.67;;;;;27.98;31.33;101723.31;5008046;28;45930;-67
2022/06/17 08:12:15;;;;;;;;;18.00;10.33;;;;;28.06;31.30;101717.59;5008227;28;45662;-68
2022/06/17 08:14:43;;;;;;;;;12.33;10.67;;;;;28.13;30.61;101727.44;5010085;28;45659;-66
2022/06/17 08:17:12;;;;;;;;;14.00;13.67;;;;;28.10;30.59;101717.47;5009407;28;45462;-70
2022/06/17 08:19:38;;;;;;;;;12.33;10.33;;;;;28.24;30.50;101727.13;5006572;28;47149;-68
2022/06/17 08:22:03;;;;;;;;;10.00;10.00;;;;;28.04;30.12;101684.69;5007759;28;45834;-69
2022/06/17 08:24:29;;;;;;;;;23.00;15.67;;;;;28.31;29.79;101715.88;5005436;28;45568;-68
2022/06/17 08:26:54;;;;;;;;;11.33;11.33;;;;;28.38;30.04;101713.84;5008457;28;45991;-70
2022/06/17 08:29:20;;;;;;;;;12.67;11.67;;;;;28.58;30.57;101728.81;5008309;28;46157;-69
2022/06/17 08:31:46;;;;;;;;;11.67;11.67;;;;;28.66;29.52;101727.59;5005222;28;46208;-70
2022/06/17 08:34:11;;;;;;;;;14.33;11.67;;;;;28.72;29.20;101728.34;5015152;28;46085;-70
2022/06/17 08:36:36;;;;;;;;;9.00;9.00;;;;;28.29;29.29;101642.66;5004034;28;45391;-69
2022/06/17 08:39:07;;;;;;;;;12.00;11.00;;;;;28.80;28.99;101721.59;5017170;28;45312;-68
2022/06/17 08:41:35;;;;;;;;;9.33;9.33;;;;;28.76;29.41;101700.69;5026937;28;45664;-69
2022/06/17 08:44:28;;;;;;;;;12.00;11.00;;;;;28.96;29.53;101718.34;5021432;28;45509;-69
2022/06/17 08:47:10;;;;;;;;;14.00;9.67;;;;;29.10;29.25;101717.84;5017043;28;45462;-69
2022/06/17 08:49:49;;;;;;;;;13.00;10.67;;;;;29.20;28.79;101708.31;5018393;28;46977;-70
2022/06/17 08:52:29;;;;;;;;;12.67;11.00;;;;;29.15;28.45;101683.69;5014637;28;45428;-70
2022/06/17 08:55:15;;;;;;;;;21.75;20.50;;;;;29.36;28.03;101700.41;5009466;28;45350;-70
2022/06/17 08:57:59;;;;;;;;;8.67;8.67;;;;;29.43;27.49;101699.22;5014788;28;45308;-70
2022/06/17 09:00:38;;;;;;;;;12.33;11.00;;;;;29.55;28.15;101695.09;5011194;28;46121;-69
2022/06/17 09:03:24;;;;;;;;;7.67;7.67;;;;;29.63;27.51;101689.31;5012463;28;45293;-70
2022/06/17 09:06:26;;;;;;;;;11.33;9.67;;;;;29.74;27.52;101689.78;5004665;28;45478;-70
2022/06/17 09:09:28;;;;;;;;;10.33;9.33;;;;;29.79;25.95;101697.91;5012549;28;45562;-69
2022/06/17 09:12:11;;;;;;;;;13.67;13.67;;;;;29.85;26.86;101695.81;5012601;28;46525;-69
2022/06/17 09:14:42;;;;;;;;;9.33;8.00;;;;;29.93;25.69;101695.53;5015713;28;45503;-69
2022/06/17 09:17:19;;;;;;;;;9.00;9.00;;;;;29.90;26.08;101696.53;5030205;28;45413;-68
2022/06/17 09:19:48;;;;;;;;;8.67;7.67;;;;;29.92;25.97;101683.56;5022562;28;45272;-69
2022/06/17 09:22:22;;;;;;;;;12.00;11.00;;;;;29.98;25.37;101687.03;5024698;28;45500;-70
2022/06/17 09:24:48;;;;;;;;;12.67;11.33;;;;;30.01;25.73;101689.69;5015883;28;45452;-70
2022/06/17 09:27:22;;;;;;;;;7.00;7.00;;;;;30.12;25.98;101695.66;5016463;28;45557;-69
2022/06/17 09:29:56;;;;;;;;;13.33;11.67;;;;;30.24;26.14;101688.75;5015854;28;45474;-70
2022/06/17 09:33:03;;;;;;;;;10.00;9.33;;;;;30.30;25.45;101685.75;5015746;28;45390;-70
2022/06/17 09:35:35;;;;;;;;;10.33;8.00;;;;;30.37;25.66;101679.03;5006379;28;45509;-70
2022/06/17 09:38:07;;;;;;;;;13.33;10.00;;;;;30.29;25.90;101668.31;5015921;28;45465;-70
2022/06/17 09:40:38;;;;;;;;;11.00;9.33;;;;;30.39;25.99;101682.66;5015964;28;45225;-70
2022/06/17 09:43:28;;;;;;;;;9.00;9.00;;;;;30.39;25.68;101681.72;5015472;28;47181;-70
2022/06/17 09:45:57;;;;;;;;;10.00;9.33;;;;;30.40;26.18;101683.53;5009931;28;45511;-70
2022/06/17 09:48:33;;;;;;;;;11.00;9.33;;;;;30.41;25.46;101685.31;5013782;28;45627;-70
2022/06/17 09:51:06;;;;;;;;;11.67;9.67;;;;;30.44;25.39;101685.19;5012640;28;45528;-68
2022/06/17 09:53:50;;;;;;;;;9.00;9.00;;;;;30.52;25.60;101687.63;5021477;28;45477;-70
2022/06/17 09:56:22;;;;;;;;;10.00;9.67;;;;;30.41;24.89;101653.13;5012503;28;45450;-70
2022/06/17 09:59:00;;;;;;;;;11.00;8.67;;;;;30.64;24.74;101679.72;5014177;28;45563;-71
2022/06/17 10:01:25;;;;;;;;;10.33;10.00;;;;;30.52;24.80;101660.06;5015886;28;45496;-70
2022/06/17 10:03:51;;;;;;;;;8.00;8.00;;;;;30.67;24.46;101671.31;5016436;28;45484;-71
2022/06/17 10:06:39;;;;;;;;;18.67;16.33;;;;;30.79;24.99;101688.31;5013947;28;45453;-70
2022/06/17 10:09:35;;;;;;;;;11.33;7.33;;;;;30.80;24.37;101687.34;5017260;28;45381;-69
2022/06/17 10:12:07;;;;;;;;;7.00;7.00;;;;;30.77;23.83;101684.69;5014703;28;45440;-68
2022/06/17 10:14:35;;;;;;;;;8.00;6.67;;;;;30.81;24.10;101690.03;5009965;28;46201;-71
2022/06/17 10:20:19;;;;;;;;;7.00;7.00;;;;;30.91;24.14;101678.59;5014507;28;45571;-73
2022/06/17 10:23:07;;;;;;;;;9.00;8.33;;;;;30.68;24.32;101622.56;5013446;28;45649;-69
2022/06/17 10:26:10;;;;;;;;;8.00;8.00;;;;;31.01;23.96;101664.34;5004286;28;45566;-69
2022/06/17 10:28:46;;;;;;;;;11.00;10.00;;;;;31.09;24.04;101679.69;5005217;28;45465;-71
2022/06/17 10:31:35;;;;;;;;;8.00;7.00;;;;;31.09;24.14;101665.88;5013924;28;45736;-67
2022/06/17 10:34:06;;;;;;;;;12.33;11.67;;;;;31.12;24.27;101668.47;5013636;28;45354;-70
2022/06/17 10:36:32;;;;;;;;;10.00;8.67;;;;;30.98;24.42;101644.25;5011690;28;46134;-68
2022/06/17 10:39:01;;;;;;;;;8.00;8.00;;;;;31.13;23.69;101670.28;5013750;28;45693;-70
2022/06/17 10:41:28;;;;;;;;;8.00;8.00;;;;;31.18;23.75;101670.97;5013748;28;45462;-69
2022/06/17 10:43:54;;;;;;;;;9.00;9.00;;;;;31.06;23.75;101644.81;5014546;28;45330;-69
2022/06/17 10:46:32;;;;;;;;;9.00;9.00;;;;;31.22;23.58;101667.09;5011792;28;45577;-69
2022/06/17 10:49:09;;;;;;;;;8.00;8.00;;;;;31.19;23.67;101657.09;5012839;28;45580;-68
2022/06/17 10:51:36;;;;;;;;;8.00;8.00;;;;;31.23;23.17;101646.78;5009112;28;45618;-70
2022/06/17 10:54:05;;;;;;;;;11.67;11.67;;;;;31.32;24.08;101662.94;5007056;28;45450;-69
2022/06/17 10:56:42;;;;;;;;;14.33;11.33;;;;;31.37;23.98;101668.25;5011471;28;45549;-70
2022/06/17 10:59:10;;;;;;;;;13.67;13.33;;;;;31.40;23.91;101668.13;5009886;28;45569;-69
2022/06/17 11:01:45;;;;;;;;;7.67;7.67;;;;;31.43;24.19;101667.94;5011430;28;45841;-69
2022/06/17 11:04:19;;;;;;;;;19.67;15.67;;;;;31.47;24.13;101669.63;5012521;28;45408;-69
2022/06/17 11:06:55;;;;;;;;;9.67;9.00;;;;;31.47;24.04;101672.38;5013442;28;46285;-68
2022/06/17 11:09:31;;;;;;;;;11.67;11.67;;;;;31.47;23.88;101671.50;5013549;28;45326;-67
2022/06/17 11:12:04;;;;;;;;;17.67;16.67;;;;;31.41;23.74;101662.53;5013350;28;45569;-70
2022/06/17 11:14:51;;;;;;;;;13.67;11.33;;;;;31.45;23.55;101665.13;5013215;28;45477;-69
2022/06/17 11:17:43;;;;;;;;;9.00;9.00;;;;;31.45;23.57;101667.88;5008477;28;45444;-70
2022/06/17 11:20:14;;;;;;;;;10.67;10.33;;;;;31.45;23.49;101682.63;5019782;28;46098;-71
2022/06/17 11:22:40;;;;;;;;;10.67;9.00;;;;;31.01;23.70;101600.84;5010862;28;45635;-69
2022/06/17 11:25:21;;;;;;;;;7.33;7.33;;;;;31.39;23.79;101660.78;5008168;28;45436;-68
2022/06/17 11:27:54;;;;;;;;;8.67;8.67;;;;;31.47;22.96;101671.50;5012643;28;46375;-71
2022/06/17 11:30:27;;;;;;;;;14.33;14.33;;;;;31.49;22.96;101670.44;5013725;28;45464;-69
2022/06/17 11:32:53;;;;;;;;;10.00;9.00;;;;;31.50;22.99;101668.59;5009955;28;45529;-69
2022/06/17 11:35:33;;;;;;;;;6.67;6.33;;;;;31.48;22.66;101662.22;5013901;28;45465;-69
2022/06/17 11:38:02;;;;;;;;;9.67;8.00;;;;;31.46;22.73;101661.41;5012287;28;47195;-70
2022/06/17 11:40:32;;;;;;;;;8.33;7.67;;;;;31.24;22.45;101626.50;5016667;28;45823;-70
2022/06/17 11:43:04;;;;;;;;;7.33;7.33;;;;;31.47;22.74;101658.56;5013873;28;45512;-69
2022/06/17 11:45:42;;;;;;;;;7.00;7.00;;;;;31.35;22.21;101626.91;5011094;28;45677;-68
2022/06/17 11:48:15;;;;;;;;;8.67;8.67;;;;;31.41;22.67;101637.69;5005082;28;45360;-71
2022/06/17 11:50:58;;;;;;;;;8.67;8.67;;;;;31.42;22.80;101625.63;5006922;28;45572;-71